sensor_id;sensor_type;location;lat;lon;timestamp;P1;durP1;ratioP1;P2;durP2;ratioP2
20150;SDS011;10236;49.638;6.830;2023-02-13T00:00:34;76.60;;;28.17;;
20150;SDS011;10236;49.638;6.830;2023-02-13T00:03:04;87.13;;;27.97;;
20150;SDS011;10236;49.638;6.830;2023-02-13T00:05:30;79.53;;;28.57;;
20150;SDS011;10236;49.638;6.830;2023-02-13T00:08:12;87.90;;;27.73;;
20150;SDS011;10236;49.638;6.830;2023-02-13T00:10:41;92.60;;;29.43;;
20150;SDS011;10236;49.638;6.830;2023-02-13T00:13:13;98.33;;;30.83;;
20150;SDS011;10236;49.638;6.830;2023-02-13T00:15:42;84.57;;;29.27;;
20150;SDS011;10236;49.638;6.830;2023-02-13T00:18:22;88.50;;;28.03;;
20150;SDS011;10236;49.638;6.830;2023-02-13T00:23:51;82.93;;;28.17;;
20150;SDS011;10236;49.638;6.830;2023-02-13T00:26:23;89.63;;;29.60;;
20150;SDS011;10236;49.638;6.830;2023-02-13T00:29:03;88.13;;;30.20;;
20150;SDS011;10236;49.638;6.830;2023-02-13T00:31:29;83.13;;;28.30;;
20150;SDS011;10236;49.638;6.830;2023-02-13T00:33:58;84.77;;;27.57;;
20150;SDS011;10236;49.638;6.830;2023-02-13T00:36:27;86.40;;;28.03;;
20150;SDS011;10236;49.638;6.830;2023-02-13T00:39:01;73.40;;;26.53;;
20150;SDS011;10236;49.638;6.830;2023-02-13T00:41:30;73.57;;;24.20;;
20150;SDS011;10236;49.638;6.830;2023-02-13T00:44:04;81.20;;;27.43;;
20150;SDS011;10236;49.638;6.830;2023-02-13T00:46:36;84.20;;;26.00;;
20150;SDS011;10236;49.638;6.830;2023-02-13T00:49:03;92.83;;;26.87;;
20150;SDS011;10236;49.638;6.830;2023-02-13T00:51:32;86.60;;;26.53;;
20150;SDS011;10236;49.638;6.830;2023-02-13T00:54:30;81.13;;;25.27;;
20150;SDS011;10236;49.638;6.830;2023-02-13T00:57:01;71.37;;;24.23;;
20150;SDS011;10236;49.638;6.830;2023-02-13T00:59:53;84.63;;;26.83;;
20150;SDS011;10236;49.638;6.830;2023-02-13T01:02:25;69.27;;;23.13;;
20150;SDS011;10236;49.638;6.830;2023-02-13T01:04:54;67.60;;;23.13;;
20150;SDS011;10236;49.638;6.830;2023-02-13T01:07:46;71.70;;;23.83;;
20150;SDS011;10236;49.638;6.830;2023-02-13T01:10:24;70.07;;;23.13;;
20150;SDS011;10236;49.638;6.830;2023-02-13T01:12:56;57.30;;;22.00;;
20150;SDS011;10236;49.638;6.830;2023-02-13T01:15:27;60.73;;;20.67;;
20150;SDS011;10236;49.638;6.830;2023-02-13T01:17:56;65.83;;;21.40;;
20150;SDS011;10236;49.638;6.830;2023-02-13T01:20:47;49.80;;;19.83;;
20150;SDS011;10236;49.638;6.830;2023-02-13T01:23:22;58.70;;;19.93;;
20150;SDS011;10236;49.638;6.830;2023-02-13T01:25:54;58.43;;;20.87;;
20150;SDS011;10236;49.638;6.830;2023-02-13T01:28:26;57.03;;;20.60;;
20150;SDS011;10236;49.638;6.830;2023-02-13T01:30:55;64.70;;;21.30;;
20150;SDS011;10236;49.638;6.830;2023-02-13T01:33:25;63.83;;;20.67;;
20150;SDS011;10236;49.638;6.830;2023-02-13T01:35:59;53.03;;;18.63;;
20150;SDS011;10236;49.638;6.830;2023-02-13T01:38:29;63.37;;;21.40;;
20150;SDS011;10236;49.638;6.830;2023-02-13T01:41:05;56.43;;;19.40;;
20150;SDS011;10236;49.638;6.830;2023-02-13T01:46:36;57.60;;;20.10;;
20150;SDS011;10236;49.638;6.830;2023-02-13T01:49:24;63.80;;;20.80;;
20150;SDS011;10236;49.638;6.830;2023-02-13T01:51:56;54.60;;;20.27;;
20150;SDS011;10236;49.638;6.830;2023-02-13T01:54:26;49.13;;;19.53;;
20150;SDS011;10236;49.638;6.830;2023-02-13T01:56:58;53.57;;;20.30;;
20150;SDS011;10236;49.638;6.830;2023-02-13T02:00:13;58.87;;;21.13;;
20150;SDS011;10236;49.638;6.830;2023-02-13T02:02:33;66.10;;;20.80;;
20150;SDS011;10236;49.638;6.830;2023-02-13T02:05:00;59.00;;;20.77;;
20150;SDS011;10236;49.638;6.830;2023-02-13T02:07:26;60.93;;;21.77;;
20150;SDS011;10236;49.638;6.830;2023-02-13T02:09:54;68.57;;;22.23;;
20150;SDS011;10236;49.638;6.830;2023-02-13T02:14:47;61.90;;;20.80;;
20150;SDS011;10236;49.638;6.830;2023-02-13T02:17:14;61.43;;;21.50;;
20150;SDS011;10236;49.638;6.830;2023-02-13T02:19:56;60.83;;;22.63;;
20150;SDS011;10236;49.638;6.830;2023-02-13T02:23:08;65.87;;;22.30;;
20150;SDS011;10236;49.638;6.830;2023-02-13T02:33:34;60.50;;;21.07;;
20150;SDS011;10236;49.638;6.830;2023-02-13T02:41:22;63.93;;;22.30;;
20150;SDS011;10236;49.638;6.830;2023-02-13T02:44:19;61.33;;;20.50;;
20150;SDS011;10236;49.638;6.830;2023-02-13T02:49:42;54.23;;;21.73;;
20150;SDS011;10236;49.638;6.830;2023-02-13T02:52:44;52.63;;;20.73;;
20150;SDS011;10236;49.638;6.830;2023-02-13T02:58:18;67.00;;;22.00;;
20150;SDS011;10236;49.638;6.830;2023-02-13T03:01:00;55.57;;;22.57;;
20150;SDS011;10236;49.638;6.830;2023-02-13T03:03:45;50.97;;;19.23;;
20150;SDS011;10236;49.638;6.830;2023-02-13T03:06:33;49.40;;;18.87;;
20150;SDS011;10236;49.638;6.830;2023-02-13T03:09:01;48.87;;;19.53;;
20150;SDS011;10236;49.638;6.830;2023-02-13T03:11:50;48.83;;;19.03;;
20150;SDS011;10236;49.638;6.830;2023-02-13T03:14:37;47.40;;;17.77;;
20150;SDS011;10236;49.638;6.830;2023-02-13T03:17:03;43.47;;;17.73;;
20150;SDS011;10236;49.638;6.830;2023-02-13T03:19:54;41.50;;;17.33;;
20150;SDS011;10236;49.638;6.830;2023-02-13T03:30:25;51.27;;;20.33;;
20150;SDS011;10236;49.638;6.830;2023-02-13T03:32:59;64.57;;;22.07;;
20150;SDS011;10236;49.638;6.830;2023-02-13T03:35:38;65.97;;;21.80;;
20150;SDS011;10236;49.638;6.830;2023-02-13T03:39:08;48.07;;;19.00;;
20150;SDS011;10236;49.638;6.830;2023-02-13T03:41:57;40.23;;;17.37;;
20150;SDS011;10236;49.638;6.830;2023-02-13T03:46:37;40.87;;;17.10;;
20150;SDS011;10236;49.638;6.830;2023-02-13T03:49:05;45.90;;;18.07;;
20150;SDS011;10236;49.638;6.830;2023-02-13T03:52:02;50.90;;;20.20;;
20150;SDS011;10236;49.638;6.830;2023-02-13T03:54:32;51.87;;;19.97;;
20150;SDS011;10236;49.638;6.830;2023-02-13T03:57:19;47.57;;;19.53;;
20150;SDS011;10236;49.638;6.830;2023-02-13T04:00:04;45.53;;;20.07;;
20150;SDS011;10236;49.638;6.830;2023-02-13T04:02:32;56.23;;;22.67;;
20150;SDS011;10236;49.638;6.830;2023-02-13T04:05:03;52.17;;;22.90;;
20150;SDS011;10236;49.638;6.830;2023-02-13T04:07:31;52.97;;;23.80;;
20150;SDS011;10236;49.638;6.830;2023-02-13T04:10:19;53.70;;;21.73;;
20150;SDS011;10236;49.638;6.830;2023-02-13T04:15:15;54.77;;;22.43;;
20150;SDS011;10236;49.638;6.830;2023-02-13T04:17:43;51.90;;;22.33;;
20150;SDS011;10236;49.638;6.830;2023-02-13T04:20:10;54.53;;;23.00;;
20150;SDS011;10236;49.638;6.830;2023-02-13T04:22:41;53.37;;;23.63;;
20150;SDS011;10236;49.638;6.830;2023-02-13T04:25:07;57.97;;;25.47;;
20150;SDS011;10236;49.638;6.830;2023-02-13T04:27:34;60.20;;;24.13;;
20150;SDS011;10236;49.638;6.830;2023-02-13T04:30:00;50.37;;;23.23;;
20150;SDS011;10236;49.638;6.830;2023-02-13T04:32:26;61.37;;;25.43;;
20150;SDS011;10236;49.638;6.830;2023-02-13T04:34:53;48.63;;;21.73;;
20150;SDS011;10236;49.638;6.830;2023-02-13T04:37:19;54.83;;;22.93;;
20150;SDS011;10236;49.638;6.830;2023-02-13T04:39:45;58.33;;;22.77;;
20150;SDS011;10236;49.638;6.830;2023-02-13T04:42:11;52.43;;;23.33;;
20150;SDS011;10236;49.638;6.830;2023-02-13T04:44:36;57.30;;;23.87;;
20150;SDS011;10236;49.638;6.830;2023-02-13T04:47:02;53.80;;;23.53;;
20150;SDS011;10236;49.638;6.830;2023-02-13T04:49:28;56.43;;;22.77;;
20150;SDS011;10236;49.638;6.830;2023-02-13T04:51:54;59.27;;;23.73;;
20150;SDS011;10236;49.638;6.830;2023-02-13T04:54:20;64.87;;;23.33;;
20150;SDS011;10236;49.638;6.830;2023-02-13T04:56:46;55.77;;;23.03;;
20150;SDS011;10236;49.638;6.830;2023-02-13T04:59:12;53.27;;;23.63;;
20150;SDS011;10236;49.638;6.830;2023-02-13T05:01:38;56.27;;;25.40;;
20150;SDS011;10236;49.638;6.830;2023-02-13T05:04:04;56.03;;;24.37;;
20150;SDS011;10236;49.638;6.830;2023-02-13T05:06:30;59.53;;;25.23;;
20150;SDS011;10236;49.638;6.830;2023-02-13T05:08:56;56.10;;;25.97;;
20150;SDS011;10236;49.638;6.830;2023-02-13T05:11:22;64.83;;;25.20;;
20150;SDS011;10236;49.638;6.830;2023-02-13T05:13:48;61.13;;;24.83;;
20150;SDS011;10236;49.638;6.830;2023-02-13T05:16:14;58.27;;;24.60;;
20150;SDS011;10236;49.638;6.830;2023-02-13T05:18:40;64.77;;;24.50;;
20150;SDS011;10236;49.638;6.830;2023-02-13T05:21:06;62.47;;;23.70;;
20150;SDS011;10236;49.638;6.830;2023-02-13T05:23:51;55.97;;;24.03;;
20150;SDS011;10236;49.638;6.830;2023-02-13T05:26:17;66.77;;;27.20;;
20150;SDS011;10236;49.638;6.830;2023-02-13T05:28:43;76.43;;;34.13;;
20150;SDS011;10236;49.638;6.830;2023-02-13T05:31:27;61.00;;;25.90;;
20150;SDS011;10236;49.638;6.830;2023-02-13T05:33:53;56.90;;;24.77;;
20150;SDS011;10236;49.638;6.830;2023-02-13T05:36:19;59.03;;;25.63;;
20150;SDS011;10236;49.638;6.830;2023-02-13T05:38:45;52.90;;;24.07;;
20150;SDS011;10236;49.638;6.830;2023-02-13T05:41:11;63.73;;;25.20;;
20150;SDS011;10236;49.638;6.830;2023-02-13T05:43:40;56.90;;;24.23;;
20150;SDS011;10236;49.638;6.830;2023-02-13T05:46:07;56.37;;;23.70;;
20150;SDS011;10236;49.638;6.830;2023-02-13T05:48:33;53.17;;;21.87;;
20150;SDS011;10236;49.638;6.830;2023-02-13T05:50:59;55.77;;;24.27;;
20150;SDS011;10236;49.638;6.830;2023-02-13T05:53:25;51.40;;;22.93;;
20150;SDS011;10236;49.638;6.830;2023-02-13T05:55:51;54.30;;;22.60;;
20150;SDS011;10236;49.638;6.830;2023-02-13T05:58:18;46.63;;;21.77;;
20150;SDS011;10236;49.638;6.830;2023-02-13T06:00:44;55.97;;;22.03;;
20150;SDS011;10236;49.638;6.830;2023-02-13T06:03:10;48.73;;;21.57;;
20150;SDS011;10236;49.638;6.830;2023-02-13T06:05:36;52.10;;;20.23;;
20150;SDS011;10236;49.638;6.830;2023-02-13T06:08:02;50.50;;;21.20;;
20150;SDS011;10236;49.638;6.830;2023-02-13T06:10:28;49.80;;;21.67;;
20150;SDS011;10236;49.638;6.830;2023-02-13T06:12:54;45.97;;;22.23;;
20150;SDS011;10236;49.638;6.830;2023-02-13T06:15:20;46.80;;;20.90;;
20150;SDS011;10236;49.638;6.830;2023-02-13T06:17:46;45.93;;;21.20;;
20150;SDS011;10236;49.638;6.830;2023-02-13T06:20:12;48.97;;;21.57;;
20150;SDS011;10236;49.638;6.830;2023-02-13T06:22:38;47.77;;;20.43;;
20150;SDS011;10236;49.638;6.830;2023-02-13T06:25:04;44.57;;;19.70;;
20150;SDS011;10236;49.638;6.830;2023-02-13T06:27:30;42.17;;;19.47;;
20150;SDS011;10236;49.638;6.830;2023-02-13T06:29:56;50.50;;;19.77;;
20150;SDS011;10236;49.638;6.830;2023-02-13T06:32:22;44.20;;;18.63;;
20150;SDS011;10236;49.638;6.830;2023-02-13T06:34:48;44.00;;;20.40;;
20150;SDS011;10236;49.638;6.830;2023-02-13T06:37:14;41.77;;;19.30;;
20150;SDS011;10236;49.638;6.830;2023-02-13T06:39:40;47.03;;;20.53;;
20150;SDS011;10236;49.638;6.830;2023-02-13T06:42:06;43.10;;;19.77;;
20150;SDS011;10236;49.638;6.830;2023-02-13T06:44:32;49.27;;;20.70;;
20150;SDS011;10236;49.638;6.830;2023-02-13T06:46:58;45.13;;;19.47;;
20150;SDS011;10236;49.638;6.830;2023-02-13T06:49:27;43.83;;;20.00;;
20150;SDS011;10236;49.638;6.830;2023-02-13T06:51:53;42.23;;;17.70;;
20150;SDS011;10236;49.638;6.830;2023-02-13T06:54:20;39.23;;;17.47;;
20150;SDS011;10236;49.638;6.830;2023-02-13T06:56:46;37.27;;;17.47;;
20150;SDS011;10236;49.638;6.830;2023-02-13T06:59:12;42.47;;;17.80;;
20150;SDS011;10236;49.638;6.830;2023-02-13T07:01:38;48.77;;;18.20;;
20150;SDS011;10236;49.638;6.830;2023-02-13T07:04:04;44.53;;;18.07;;
20150;SDS011;10236;49.638;6.830;2023-02-13T07:06:30;44.13;;;17.60;;
20150;SDS011;10236;49.638;6.830;2023-02-13T07:08:56;43.87;;;18.43;;
20150;SDS011;10236;49.638;6.830;2023-02-13T07:11:23;45.53;;;18.63;;
20150;SDS011;10236;49.638;6.830;2023-02-13T07:13:49;48.10;;;18.03;;
20150;SDS011;10236;49.638;6.830;2023-02-13T07:16:15;52.57;;;20.13;;
20150;SDS011;10236;49.638;6.830;2023-02-13T07:18:41;46.97;;;19.97;;
20150;SDS011;10236;49.638;6.830;2023-02-13T07:21:07;48.80;;;20.43;;
20150;SDS011;10236;49.638;6.830;2023-02-13T07:23:33;45.43;;;18.80;;
20150;SDS011;10236;49.638;6.830;2023-02-13T07:26:03;46.20;;;19.90;;
20150;SDS011;10236;49.638;6.830;2023-02-13T07:28:29;45.13;;;18.87;;
20150;SDS011;10236;49.638;6.830;2023-02-13T07:30:55;43.53;;;19.83;;
20150;SDS011;10236;49.638;6.830;2023-02-13T07:33:21;45.83;;;19.00;;
20150;SDS011;10236;49.638;6.830;2023-02-13T07:35:48;44.23;;;19.33;;
20150;SDS011;10236;49.638;6.830;2023-02-13T07:38:15;36.87;;;18.43;;
20150;SDS011;10236;49.638;6.830;2023-02-13T07:40:41;44.77;;;18.20;;
20150;SDS011;10236;49.638;6.830;2023-02-13T07:43:07;44.50;;;19.23;;
20150;SDS011;10236;49.638;6.830;2023-02-13T07:45:33;45.57;;;18.43;;
20150;SDS011;10236;49.638;6.830;2023-02-13T07:47:59;39.53;;;18.03;;
20150;SDS011;10236;49.638;6.830;2023-02-13T07:50:25;43.40;;;18.63;;
20150;SDS011;10236;49.638;6.830;2023-02-13T07:52:58;41.80;;;18.17;;
20150;SDS011;10236;49.638;6.830;2023-02-13T07:55:24;38.77;;;17.70;;
20150;SDS011;10236;49.638;6.830;2023-02-13T07:57:51;38.67;;;17.20;;
20150;SDS011;10236;49.638;6.830;2023-02-13T08:00:17;42.40;;;18.07;;
20150;SDS011;10236;49.638;6.830;2023-02-13T08:02:43;41.07;;;16.57;;
20150;SDS011;10236;49.638;6.830;2023-02-13T08:05:09;41.77;;;16.53;;
20150;SDS011;10236;49.638;6.830;2023-02-13T08:07:35;40.73;;;15.93;;
20150;SDS011;10236;49.638;6.830;2023-02-13T08:10:01;35.87;;;16.30;;
20150;SDS011;10236;49.638;6.830;2023-02-13T08:12:46;31.67;;;16.27;;
20150;SDS011;10236;49.638;6.830;2023-02-13T08:15:13;34.87;;;16.30;;
20150;SDS011;10236;49.638;6.830;2023-02-13T08:17:40;40.20;;;17.10;;
20150;SDS011;10236;49.638;6.830;2023-02-13T08:20:06;37.60;;;16.13;;
20150;SDS011;10236;49.638;6.830;2023-02-13T08:22:32;34.57;;;15.80;;
20150;SDS011;10236;49.638;6.830;2023-02-13T08:24:58;36.47;;;16.93;;
20150;SDS011;10236;49.638;6.830;2023-02-13T08:27:24;35.40;;;16.20;;
20150;SDS011;10236;49.638;6.830;2023-02-13T08:29:51;36.43;;;16.40;;
20150;SDS011;10236;49.638;6.830;2023-02-13T08:32:17;32.43;;;16.37;;
20150;SDS011;10236;49.638;6.830;2023-02-13T08:34:43;38.80;;;16.73;;
20150;SDS011;10236;49.638;6.830;2023-02-13T08:37:09;32.20;;;15.67;;
20150;SDS011;10236;49.638;6.830;2023-02-13T08:39:35;40.03;;;17.17;;
20150;SDS011;10236;49.638;6.830;2023-02-13T08:42:01;32.73;;;15.40;;
20150;SDS011;10236;49.638;6.830;2023-02-13T08:44:28;32.27;;;15.27;;
20150;SDS011;10236;49.638;6.830;2023-02-13T08:46:54;37.93;;;15.73;;
20150;SDS011;10236;49.638;6.830;2023-02-13T08:49:20;27.37;;;15.10;;
20150;SDS011;10236;49.638;6.830;2023-02-13T08:51:47;30.67;;;14.60;;
20150;SDS011;10236;49.638;6.830;2023-02-13T08:54:13;27.83;;;14.83;;
20150;SDS011;10236;49.638;6.830;2023-02-13T08:56:39;28.93;;;14.93;;
20150;SDS011;10236;49.638;6.830;2023-02-13T08:59:06;26.13;;;13.67;;
20150;SDS011;10236;49.638;6.830;2023-02-13T09:01:32;23.73;;;13.77;;
20150;SDS011;10236;49.638;6.830;2023-02-13T09:03:58;24.23;;;13.40;;
20150;SDS011;10236;49.638;6.830;2023-02-13T09:06:24;25.40;;;12.20;;
20150;SDS011;10236;49.638;6.830;2023-02-13T09:08:51;21.93;;;12.07;;
20150;SDS011;10236;49.638;6.830;2023-02-13T09:11:17;18.60;;;11.13;;
20150;SDS011;10236;49.638;6.830;2023-02-13T09:13:46;18.37;;;10.60;;
20150;SDS011;10236;49.638;6.830;2023-02-13T09:16:12;17.53;;;10.70;;
20150;SDS011;10236;49.638;6.830;2023-02-13T09:18:38;18.33;;;9.57;;
20150;SDS011;10236;49.638;6.830;2023-02-13T09:21:05;13.07;;;8.10;;
20150;SDS011;10236;49.638;6.830;2023-02-13T09:23:33;13.60;;;8.73;;
20150;SDS011;10236;49.638;6.830;2023-02-13T09:25:59;12.67;;;7.47;;
20150;SDS011;10236;49.638;6.830;2023-02-13T09:28:26;12.00;;;7.40;;
20150;SDS011;10236;49.638;6.830;2023-02-13T09:30:52;12.37;;;7.93;;
20150;SDS011;10236;49.638;6.830;2023-02-13T09:33:18;12.30;;;7.60;;
20150;SDS011;10236;49.638;6.830;2023-02-13T09:35:43;9.23;;;6.13;;
20150;SDS011;10236;49.638;6.830;2023-02-13T09:38:10;11.00;;;6.67;;
20150;SDS011;10236;49.638;6.830;2023-02-13T09:40:38;9.47;;;5.97;;
20150;SDS011;10236;49.638;6.830;2023-02-13T09:43:11;10.93;;;6.10;;
20150;SDS011;10236;49.638;6.830;2023-02-13T09:45:38;11.87;;;7.10;;
20150;SDS011;10236;49.638;6.830;2023-02-13T09:48:04;10.77;;;6.87;;
20150;SDS011;10236;49.638;6.830;2023-02-13T09:50:31;9.83;;;6.07;;
20150;SDS011;10236;49.638;6.830;2023-02-13T09:53:06;9.83;;;5.93;;
20150;SDS011;10236;49.638;6.830;2023-02-13T10:04:15;9.13;;;5.23;;
20150;SDS011;10236;49.638;6.830;2023-02-13T10:07:17;6.30;;;4.37;;
20150;SDS011;10236;49.638;6.830;2023-02-13T10:09:50;7.17;;;4.17;;
20150;SDS011;10236;49.638;6.830;2023-02-13T10:12:27;6.30;;;4.23;;
20150;SDS011;10236;49.638;6.830;2023-02-13T10:22:45;7.90;;;5.20;;
20150;SDS011;10236;49.638;6.830;2023-02-13T10:25:44;7.53;;;5.07;;
20150;SDS011;10236;49.638;6.830;2023-02-13T10:31:32;8.70;;;5.50;;
20150;SDS011;10236;49.638;6.830;2023-02-13T10:37:20;8.47;;;5.60;;
20150;SDS011;10236;49.638;6.830;2023-02-13T10:39:48;6.87;;;5.20;;
20150;SDS011;10236;49.638;6.830;2023-02-13T10:44:56;6.63;;;5.03;;
20150;SDS011;10236;49.638;6.830;2023-02-13T10:53:13;9.23;;;6.00;;
20150;SDS011;10236;49.638;6.830;2023-02-13T11:03:36;8.30;;;6.37;;
20150;SDS011;10236;49.638;6.830;2023-02-13T11:06:04;10.50;;;7.47;;
20150;SDS011;10236;49.638;6.830;2023-02-13T11:08:33;10.20;;;7.82;;
20150;SDS011;10236;49.638;6.830;2023-02-13T11:10:59;10.18;;;7.32;;
20150;SDS011;10236;49.638;6.830;2023-02-13T11:13:27;9.90;;;7.93;;
20150;SDS011;10236;49.638;6.830;2023-02-13T11:15:58;7.72;;;6.45;;
20150;SDS011;10236;49.638;6.830;2023-02-13T11:18:28;8.63;;;6.97;;
20150;SDS011;10236;49.638;6.830;2023-02-13T11:21:03;9.13;;;6.90;;
20150;SDS011;10236;49.638;6.830;2023-02-13T11:23:32;8.52;;;6.88;;
20150;SDS011;10236;49.638;6.830;2023-02-13T11:26:04;7.47;;;6.45;;
20150;SDS011;10236;49.638;6.830;2023-02-13T11:28:33;8.00;;;6.72;;
20150;SDS011;10236;49.638;6.830;2023-02-13T11:31:17;9.65;;;7.20;;
20150;SDS011;10236;49.638;6.830;2023-02-13T11:33:44;10.25;;;7.35;;
20150;SDS011;10236;49.638;6.830;2023-02-13T11:38:59;8.07;;;6.60;;
20150;SDS011;10236;49.638;6.830;2023-02-13T11:41:26;6.80;;;6.10;;
20150;SDS011;10236;49.638;6.830;2023-02-13T11:43:53;7.97;;;6.72;;
20150;SDS011;10236;49.638;6.830;2023-02-13T11:46:25;6.80;;;6.10;;
20150;SDS011;10236;49.638;6.830;2023-02-13T11:51:43;8.38;;;6.28;;
20150;SDS011;10236;49.638;6.830;2023-02-13T11:56:55;7.78;;;6.35;;
20150;SDS011;10236;49.638;6.830;2023-02-13T11:59:22;7.32;;;6.22;;
20150;SDS011;10236;49.638;6.830;2023-02-13T12:04:27;7.65;;;6.15;;
20150;SDS011;10236;49.638;6.830;2023-02-13T12:07:02;7.22;;;5.82;;
20150;SDS011;10236;49.638;6.830;2023-02-13T12:17:55;8.27;;;6.22;;
20150;SDS011;10236;49.638;6.830;2023-02-13T12:20:23;8.02;;;5.45;;
20150;SDS011;10236;49.638;6.830;2023-02-13T12:22:57;8.15;;;6.18;;
20150;SDS011;10236;49.638;6.830;2023-02-13T12:25:43;5.95;;;5.03;;
20150;SDS011;10236;49.638;6.830;2023-02-13T12:28:12;6.07;;;5.38;;
20150;SDS011;10236;49.638;6.830;2023-02-13T12:33:43;7.35;;;5.95;;
20150;SDS011;10236;49.638;6.830;2023-02-13T12:51:26;8.48;;;5.97;;
20150;SDS011;10236;49.638;6.830;2023-02-13T12:56:31;7.70;;;5.63;;
20150;SDS011;10236;49.638;6.830;2023-02-13T12:59:03;7.25;;;5.65;;
20150;SDS011;10236;49.638;6.830;2023-02-13T13:19:34;8.20;;;6.38;;
20150;SDS011;10236;49.638;6.830;2023-02-13T13:28:04;8.48;;;6.07;;
20150;SDS011;10236;49.638;6.830;2023-02-13T13:30:32;8.07;;;6.25;;
20150;SDS011;10236;49.638;6.830;2023-02-13T13:33:19;8.10;;;6.35;;
20150;SDS011;10236;49.638;6.830;2023-02-13T13:36:00;6.88;;;5.70;;
20150;SDS011;10236;49.638;6.830;2023-02-13T13:59:54;5.43;;;4.53;;
20150;SDS011;10236;49.638;6.830;2023-02-13T14:07:32;5.50;;;4.40;;
20150;SDS011;10236;49.638;6.830;2023-02-13T14:10:11;6.10;;;4.75;;
20150;SDS011;10236;49.638;6.830;2023-02-13T14:12:49;6.28;;;4.60;;
20150;SDS011;10236;49.638;6.830;2023-02-13T14:20:41;5.13;;;4.25;;
20150;SDS011;10236;49.638;6.830;2023-02-13T14:28:36;5.13;;;4.20;;
20150;SDS011;10236;49.638;6.830;2023-02-13T14:31:05;6.63;;;5.70;;
20150;SDS011;10236;49.638;6.830;2023-02-13T14:33:38;7.13;;;4.70;;
20150;SDS011;10236;49.638;6.830;2023-02-13T14:36:15;5.65;;;3.75;;
20150;SDS011;10236;49.638;6.830;2023-02-13T14:38:43;5.47;;;3.67;;
20150;SDS011;10236;49.638;6.830;2023-02-13T14:43:54;4.95;;;3.55;;
20150;SDS011;10236;49.638;6.830;2023-02-13T14:46:31;5.18;;;3.80;;
20150;SDS011;10236;49.638;6.830;2023-02-13T14:49:16;5.63;;;4.28;;
20150;SDS011;10236;49.638;6.830;2023-02-13T14:51:52;6.97;;;3.75;;
20150;SDS011;10236;49.638;6.830;2023-02-13T14:57:11;5.38;;;4.15;;
20150;SDS011;10236;49.638;6.830;2023-02-13T14:59:44;4.47;;;3.72;;
20150;SDS011;10236;49.638;6.830;2023-02-13T15:02:14;5.50;;;3.33;;
20150;SDS011;10236;49.638;6.830;2023-02-13T15:04:42;5.38;;;3.50;;
20150;SDS011;10236;49.638;6.830;2023-02-13T15:07:22;6.05;;;4.20;;
20150;SDS011;10236;49.638;6.830;2023-02-13T15:09:57;7.97;;;4.28;;
20150;SDS011;10236;49.638;6.830;2023-02-13T15:14:53;4.22;;;3.35;;
20150;SDS011;10236;49.638;6.830;2023-02-13T15:17:24;5.20;;;3.90;;
20150;SDS011;10236;49.638;6.830;2023-02-13T15:19:54;8.75;;;6.55;;
20150;SDS011;10236;49.638;6.830;2023-02-13T15:22:34;8.27;;;4.65;;
20150;SDS011;10236;49.638;6.830;2023-02-13T15:25:06;5.28;;;3.50;;
20150;SDS011;10236;49.638;6.830;2023-02-13T15:27:39;9.30;;;4.00;;
20150;SDS011;10236;49.638;6.830;2023-02-13T15:32:59;4.80;;;3.42;;
20150;SDS011;10236;49.638;6.830;2023-02-13T15:35:29;6.88;;;3.63;;
20150;SDS011;10236;49.638;6.830;2023-02-13T15:37:56;5.20;;;3.50;;
20150;SDS011;10236;49.638;6.830;2023-02-13T15:40:29;6.00;;;4.60;;
20150;SDS011;10236;49.638;6.830;2023-02-13T15:42:56;6.63;;;3.75;;
20150;SDS011;10236;49.638;6.830;2023-02-13T15:45:24;5.95;;;3.47;;
20150;SDS011;10236;49.638;6.830;2023-02-13T15:47:53;6.60;;;4.32;;
20150;SDS011;10236;49.638;6.830;2023-02-13T15:50:33;4.35;;;3.33;;
20150;SDS011;10236;49.638;6.830;2023-02-13T15:53:03;4.72;;;3.60;;
20150;SDS011;10236;49.638;6.830;2023-02-13T15:55:31;6.72;;;4.00;;
20150;SDS011;10236;49.638;6.830;2023-02-13T15:58:08;4.23;;;3.63;;
20150;SDS011;10236;49.638;6.830;2023-02-13T16:00:40;5.05;;;3.60;;
20150;SDS011;10236;49.638;6.830;2023-02-13T16:03:07;6.38;;;4.32;;
20150;SDS011;10236;49.638;6.830;2023-02-13T16:05:38;5.43;;;3.70;;
20150;SDS011;10236;49.638;6.830;2023-02-13T16:11:17;6.13;;;4.17;;
20150;SDS011;10236;49.638;6.830;2023-02-13T16:16:22;7.30;;;4.57;;
20150;SDS011;10236;49.638;6.830;2023-02-13T16:18:50;7.47;;;4.27;;
20150;SDS011;10236;49.638;6.830;2023-02-13T16:21:22;6.30;;;4.60;;
20150;SDS011;10236;49.638;6.830;2023-02-13T16:23:49;6.60;;;4.83;;
20150;SDS011;10236;49.638;6.830;2023-02-13T16:26:16;5.73;;;4.20;;
20150;SDS011;10236;49.638;6.830;2023-02-13T16:28:47;8.20;;;4.67;;
20150;SDS011;10236;49.638;6.830;2023-02-13T16:31:21;7.60;;;4.70;;
20150;SDS011;10236;49.638;6.830;2023-02-13T16:33:47;6.33;;;5.20;;
20150;SDS011;10236;49.638;6.830;2023-02-13T16:36:18;7.03;;;5.37;;
20150;SDS011;10236;49.638;6.830;2023-02-13T16:38:47;7.20;;;5.73;;
20150;SDS011;10236;49.638;6.830;2023-02-13T16:46:25;6.87;;;5.63;;
20150;SDS011;10236;49.638;6.830;2023-02-13T16:51:37;8.30;;;7.30;;
20150;SDS011;10236;49.638;6.830;2023-02-13T16:56:37;8.00;;;5.57;;
20150;SDS011;10236;49.638;6.830;2023-02-13T16:59:04;7.27;;;5.80;;
20150;SDS011;10236;49.638;6.830;2023-02-13T17:01:38;9.67;;;6.37;;
20150;SDS011;10236;49.638;6.830;2023-02-13T17:04:21;9.77;;;7.13;;
20150;SDS011;10236;49.638;6.830;2023-02-13T17:06:47;10.77;;;6.80;;
20150;SDS011;10236;49.638;6.830;2023-02-13T17:09:13;12.67;;;8.50;;
20150;SDS011;10236;49.638;6.830;2023-02-13T17:11:40;10.30;;;8.33;;
20150;SDS011;10236;49.638;6.830;2023-02-13T17:14:06;12.07;;;7.83;;
20150;SDS011;10236;49.638;6.830;2023-02-13T17:16:32;10.17;;;6.90;;
20150;SDS011;10236;49.638;6.830;2023-02-13T17:19:01;9.67;;;8.00;;
20150;SDS011;10236;49.638;6.830;2023-02-13T17:21:27;10.10;;;7.23;;
20150;SDS011;10236;49.638;6.830;2023-02-13T17:23:53;9.90;;;7.57;;
20150;SDS011;10236;49.638;6.830;2023-02-13T17:26:19;10.43;;;7.50;;
20150;SDS011;10236;49.638;6.830;2023-02-13T17:28:44;10.07;;;7.50;;
20150;SDS011;10236;49.638;6.830;2023-02-13T17:31:10;11.53;;;7.37;;
20150;SDS011;10236;49.638;6.830;2023-02-13T17:33:37;12.57;;;7.07;;
20150;SDS011;10236;49.638;6.830;2023-02-13T17:36:05;10.93;;;6.80;;
20150;SDS011;10236;49.638;6.830;2023-02-13T17:38:31;11.90;;;7.97;;
20150;SDS011;10236;49.638;6.830;2023-02-13T17:40:57;12.70;;;8.23;;
20150;SDS011;10236;49.638;6.830;2023-02-13T17:43:23;23.97;;;13.40;;
20150;SDS011;10236;49.638;6.830;2023-02-13T17:45:50;39.67;;;23.93;;
20150;SDS011;10236;49.638;6.830;2023-02-13T17:48:16;56.60;;;30.63;;
20150;SDS011;10236;49.638;6.830;2023-02-13T17:50:43;42.90;;;24.03;;
20150;SDS011;10236;49.638;6.830;2023-02-13T17:53:17;46.33;;;26.07;;
20150;SDS011;10236;49.638;6.830;2023-02-13T17:55:44;32.13;;;17.63;;
20150;SDS011;10236;49.638;6.830;2023-02-13T17:58:10;27.70;;;15.90;;
20150;SDS011;10236;49.638;6.830;2023-02-13T18:00:35;20.43;;;13.70;;
20150;SDS011;10236;49.638;6.830;2023-02-13T18:03:02;17.93;;;11.47;;
20150;SDS011;10236;49.638;6.830;2023-02-13T18:05:28;18.13;;;10.27;;
20150;SDS011;10236;49.638;6.830;2023-02-13T18:07:56;15.17;;;10.13;;
20150;SDS011;10236;49.638;6.830;2023-02-13T18:10:23;15.50;;;10.07;;
20150;SDS011;10236;49.638;6.830;2023-02-13T18:12:49;18.17;;;11.00;;
20150;SDS011;10236;49.638;6.830;2023-02-13T18:15:16;17.17;;;10.63;;
20150;SDS011;10236;49.638;6.830;2023-02-13T18:17:42;18.90;;;11.97;;